sensor_id;sensor_type;location;lat;lon;timestamp;pressure;altitude;pressure_sealevel;temperature;humidity
70127;BME280;57491;42.694;23.314;2023-06-14T00:00:32;94860.00;;;18.34;80.89
70127;BME280;57491;42.694;23.314;2023-06-14T00:03:00;94850.75;;;18.32;80.84
70127;BME280;57491;42.694;23.314;2023-06-14T00:05:28;94868.13;;;18.44;80.64
70127;BME280;57491;42.694;23.314;2023-06-14T00:07:58;94866.19;;;18.40;80.53
70127;BME280;57491;42.694;23.314;2023-06-14T00:10:25;94863.06;;;18.43;80.39
70127;BME280;57491;42.694;23.314;2023-06-14T00:12:58;94853.56;;;18.42;81.01
70127;BME280;57491;42.694;23.314;2023-06-14T00:15:25;94854.72;;;18.46;81.03
70127;BME280;57491;42.694;23.314;2023-06-14T00:17:52;94857.91;;;18.48;81.10
70127;BME280;57491;42.694;23.314;2023-06-14T00:20:20;94858.72;;;18.48;80.98
70127;BME280;57491;42.694;23.314;2023-06-14T00:22:48;94860.47;;;18.54;81.38
70127;BME280;57491;42.694;23.314;2023-06-14T00:25:15;94855.19;;;18.54;80.55
70127;BME280;57491;42.694;23.314;2023-06-14T00:27:43;94860.78;;;18.58;80.31
70127;BME280;57491;42.694;23.314;2023-06-14T00:30:12;94852.88;;;18.58;79.51
70127;BME280;57491;42.694;23.314;2023-06-14T00:32:39;94851.75;;;18.54;79.81
70127;BME280;57491;42.694;23.314;2023-06-14T00:35:08;94856.41;;;18.52;79.38
70127;BME280;57491;42.694;23.314;2023-06-14T00:37:36;94849.00;;;18.49;79.26
70127;BME280;57491;42.694;23.314;2023-06-14T00:40:04;94829.81;;;18.37;79.36
70127;BME280;57491;42.694;23.314;2023-06-14T00:42:32;94844.28;;;18.51;79.53
70127;BME280;57491;42.694;23.314;2023-06-14T00:45:02;94838.13;;;18.45;79.55
70127;BME280;57491;42.694;23.314;2023-06-14T00:47:34;94833.41;;;18.47;79.35
70127;BME280;57491;42.694;23.314;2023-06-14T00:50:06;94838.94;;;18.46;79.15
70127;BME280;57491;42.694;23.314;2023-06-14T00:52:34;94837.22;;;18.40;79.33
70127;BME280;57491;42.694;23.314;2023-06-14T00:55:02;94833.66;;;18.46;79.70
70127;BME280;57491;42.694;23.314;2023-06-14T00:57:29;94837.00;;;18.53;79.29
70127;BME280;57491;42.694;23.314;2023-06-14T00:59:56;94839.50;;;18.59;79.68
70127;BME280;57491;42.694;23.314;2023-06-14T01:02:24;94832.06;;;18.56;79.13
70127;BME280;57491;42.694;23.314;2023-06-14T01:04:53;94842.34;;;18.58;79.21
70127;BME280;57491;42.694;23.314;2023-06-14T01:07:28;94843.00;;;18.65;79.60
70127;BME280;57491;42.694;23.314;2023-06-14T01:10:12;94839.81;;;18.63;79.79
70127;BME280;57491;42.694;23.314;2023-06-14T01:12:51;94838.00;;;18.63;79.29
70127;BME280;57491;42.694;23.314;2023-06-14T01:15:20;94821.63;;;18.61;79.32
70127;BME280;57491;42.694;23.314;2023-06-14T01:17:49;94838.53;;;18.65;79.07
70127;BME280;57491;42.694;23.314;2023-06-14T01:20:21;94839.34;;;18.66;79.65
70127;BME280;57491;42.694;23.314;2023-06-14T01:22:52;94827.38;;;18.58;79.05
70127;BME280;57491;42.694;23.314;2023-06-14T01:25:20;94836.94;;;18.64;79.07
70127;BME280;57491;42.694;23.314;2023-06-14T01:27:49;94836.16;;;18.64;79.25
70127;BME280;57491;42.694;23.314;2023-06-14T01:30:18;94839.13;;;18.67;79.45
70127;BME280;57491;42.694;23.314;2023-06-14T01:32:47;94829.28;;;18.63;78.74
70127;BME280;57491;42.694;23.314;2023-06-14T01:35:18;94834.09;;;18.66;78.50
70127;BME280;57491;42.694;23.314;2023-06-14T01:37:47;94834.09;;;18.66;78.75
70127;BME280;57491;42.694;23.314;2023-06-14T01:40:17;94829.03;;;18.64;79.44
70127;BME280;57491;42.694;23.314;2023-06-14T01:42:46;94838.94;;;18.57;79.20
70127;BME280;57491;42.694;23.314;2023-06-14T01:45:15;94836.31;;;18.46;78.81
70127;BME280;57491;42.694;23.314;2023-06-14T01:47:44;94832.63;;;18.47;79.21
70127;BME280;57491;42.694;23.314;2023-06-14T01:50:14;94836.16;;;18.52;79.24
70127;BME280;57491;42.694;23.314;2023-06-14T01:52:41;94833.53;;;18.52;79.15
70127;BME280;57491;42.694;23.314;2023-06-14T01:55:08;94835.25;;;18.47;79.28
70127;BME280;57491;42.694;23.314;2023-06-14T01:57:37;94844.28;;;18.51;79.49
70127;BME280;57491;42.694;23.314;2023-06-14T02:00:05;94837.34;;;18.45;79.29
70127;BME280;57491;42.694;23.314;2023-06-14T02:02:37;94844.28;;;18.51;79.59
70127;BME280;57491;42.694;23.314;2023-06-14T02:05:04;94851.88;;;18.59;79.45
70127;BME280;57491;42.694;23.314;2023-06-14T02:07:31;94854.94;;;18.56;78.88
70127;BME280;57491;42.694;23.314;2023-06-14T02:09:59;94847.38;;;18.48;78.31
70127;BME280;57491;42.694;23.314;2023-06-14T02:12:26;94853.03;;;18.40;78.62
70127;BME280;57491;42.694;23.314;2023-06-14T02:14:54;94858.84;;;18.42;78.32
70127;BME280;57491;42.694;23.314;2023-06-14T02:17:22;94861.94;;;18.39;78.42
70127;BME280;57491;42.694;23.314;2023-06-14T02:19:49;94863.66;;;18.33;78.52
70127;BME280;57491;42.694;23.314;2023-06-14T02:22:16;94863.22;;;18.24;78.63
70127;BME280;57491;42.694;23.314;2023-06-14T02:24:44;94864.03;;;18.13;78.61
70127;BME280;57491;42.694;23.314;2023-06-14T02:27:11;94864.41;;;18.05;79.74
70127;BME280;57491;42.694;23.314;2023-06-14T02:29:38;94864.03;;;18.02;79.62
70127;BME280;57491;42.694;23.314;2023-06-14T02:32:07;94857.63;;;17.98;79.79
70127;BME280;57491;42.694;23.314;2023-06-14T02:34:36;94871.38;;;18.00;79.52
70127;BME280;57491;42.694;23.314;2023-06-14T02:37:07;94865.78;;;17.96;79.88
70127;BME280;57491;42.694;23.314;2023-06-14T02:39:34;94867.47;;;18.02;79.71
70127;BME280;57491;42.694;23.314;2023-06-14T02:42:02;94844.84;;;17.90;79.56
70127;BME280;57491;42.694;23.314;2023-06-14T02:44:29;94857.88;;;17.96;79.84
70127;BME280;57491;42.694;23.314;2023-06-14T02:46:57;94862.00;;;18.04;80.12
70127;BME280;57491;42.694;23.314;2023-06-14T02:49:27;94860.38;;;18.03;79.95
70127;BME280;57491;42.694;23.314;2023-06-14T02:51:56;94853.19;;;17.98;80.04
70127;BME280;57491;42.694;23.314;2023-06-14T02:54:24;94863.59;;;18.05;80.40
70127;BME280;57491;42.694;23.314;2023-06-14T02:56:51;94864.41;;;18.05;80.48
70127;BME280;57491;42.694;23.314;2023-06-14T02:59:18;94866.56;;;18.08;80.32
70127;BME280;57491;42.694;23.314;2023-06-14T03:01:47;94872.38;;;18.10;80.14
70127;BME280;57491;42.694;23.314;2023-06-14T03:04:14;94874.31;;;18.15;80.16
70127;BME280;57491;42.694;23.314;2023-06-14T03:06:43;94868.28;;;18.14;80.28
70127;BME280;57491;42.694;23.314;2023-06-14T03:09:16;94861.53;;;18.07;79.43
70127;BME280;57491;42.694;23.314;2023-06-14T03:11:43;94875.25;;;18.09;79.68
70127;BME280;57491;42.694;23.314;2023-06-14T03:14:11;94878.69;;;18.09;79.68
70127;BME280;57491;42.694;23.314;2023-06-14T03:16:39;94865.31;;;17.99;79.43
70127;BME280;57491;42.694;23.314;2023-06-14T03:19:06;94883.84;;;18.04;79.68
70127;BME280;57491;42.694;23.314;2023-06-14T03:21:33;94882.69;;;18.00;79.87
70127;BME280;57491;42.694;23.314;2023-06-14T03:24:03;94884.75;;;17.98;80.16
70127;BME280;57491;42.694;23.314;2023-06-14T03:26:30;94887.84;;;18.07;80.64
70127;BME280;57491;42.694;23.314;2023-06-14T03:28:59;94884.50;;;18.11;80.10
70127;BME280;57491;42.694;23.314;2023-06-14T03:31:29;94887.84;;;18.18;79.93
70127;BME280;57491;42.694;23.314;2023-06-14T03:33:58;94891.38;;;18.24;80.51
70127;BME280;57491;42.694;23.314;2023-06-14T03:36:25;94890.00;;;18.21;79.70
70127;BME280;57491;42.694;23.314;2023-06-14T03:38:53;94891.13;;;18.25;79.39
70127;BME280;57491;42.694;23.314;2023-06-14T03:41:22;94899.94;;;18.31;79.83
70127;BME280;57491;42.694;23.314;2023-06-14T03:43:49;94889.75;;;18.35;79.29
70127;BME280;57491;42.694;23.314;2023-06-14T03:46:16;94893.41;;;18.34;79.06
70127;BME280;57491;42.694;23.314;2023-06-14T03:48:43;94899.38;;;18.29;78.60
70127;BME280;57491;42.694;23.314;2023-06-14T03:51:10;94897.31;;;18.19;79.11
70127;BME280;57491;42.694;23.314;2023-06-14T03:53:37;94892.75;;;18.15;79.20
70127;BME280;57491;42.694;23.314;2023-06-14T03:56:05;94896.66;;;18.12;79.38
70127;BME280;57491;42.694;23.314;2023-06-14T03:58:34;94898.25;;;18.13;79.72
70127;BME280;57491;42.694;23.314;2023-06-14T04:01:01;94896.28;;;18.20;79.61
70127;BME280;57491;42.694;23.314;2023-06-14T04:03:29;94894.34;;;18.27;79.16
70127;BME280;57491;42.694;23.314;2023-06-14T04:05:56;94899.72;;;18.33;79.33
70127;BME280;57491;42.694;23.314;2023-06-14T04:08:25;94894.91;;;18.41;78.95
70127;BME280;57491;42.694;23.314;2023-06-14T04:10:52;94900.50;;;18.45;78.69
70127;BME280;57491;42.694;23.314;2023-06-14T04:13:19;94903.63;;;18.53;78.70
70127;BME280;57491;42.694;23.314;2023-06-14T04:15:51;94891.69;;;18.62;78.18
70127;BME280;57491;42.694;23.314;2023-06-14T04:18:18;94890.31;;;18.60;77.42
70127;BME280;57491;42.694;23.314;2023-06-14T04:20:46;94881.28;;;18.56;77.45
70127;BME280;57491;42.694;23.314;2023-06-14T04:23:14;94900.13;;;18.64;77.39
70127;BME280;57491;42.694;23.314;2023-06-14T04:25:43;94891.41;;;18.76;77.42
70127;BME280;57491;42.694;23.314;2023-06-14T04:28:13;94895.38;;;18.90;76.66
70127;BME280;57491;42.694;23.314;2023-06-14T04:30:41;94902.69;;;18.99;76.37
70127;BME280;57491;42.694;23.314;2023-06-14T04:33:09;94903.34;;;19.06;75.07
70127;BME280;57491;42.694;23.314;2023-06-14T04:35:37;94900.22;;;19.09;75.17
70127;BME280;57491;42.694;23.314;2023-06-14T04:38:04;94907.09;;;19.10;74.07
70127;BME280;57491;42.694;23.314;2023-06-14T04:40:35;94903.38;;;19.23;74.10
70127;BME280;57491;42.694;23.314;2023-06-14T04:43:08;94905.78;;;19.25;73.43
70127;BME280;57491;42.694;23.314;2023-06-14T04:45:38;94898.09;;;19.23;73.38
70127;BME280;57491;42.694;23.314;2023-06-14T04:48:05;94903.25;;;19.30;73.09
70127;BME280;57491;42.694;23.314;2023-06-14T04:50:34;94901.25;;;19.37;73.39
70127;BME280;57491;42.694;23.314;2023-06-14T04:53:01;94894.00;;;19.27;73.11
70127;BME280;57491;42.694;23.314;2023-06-14T04:55:29;94914.09;;;19.45;73.38
70127;BME280;57491;42.694;23.314;2023-06-14T04:57:56;94910.81;;;19.54;73.01
70127;BME280;57491;42.694;23.314;2023-06-14T05:00:23;94913.94;;;19.68;72.83
70127;BME280;57491;42.694;23.314;2023-06-14T05:02:51;94919.06;;;19.75;72.22
70127;BME280;57491;42.694;23.314;2023-06-14T05:05:18;94918.44;;;19.84;71.15
70127;BME280;57491;42.694;23.314;2023-06-14T05:07:48;94914.19;;;19.83;72.01
70127;BME280;57491;42.694;23.314;2023-06-14T05:10:15;94925.25;;;19.80;71.48
70127;BME280;57491;42.694;23.314;2023-06-14T05:12:45;94916.25;;;19.81;71.12
70127;BME280;57491;42.694;23.314;2023-06-14T05:15:13;94918.19;;;20.02;70.63
70127;BME280;57491;42.694;23.314;2023-06-14T05:17:40;94922.84;;;20.12;70.29
70127;BME280;57491;42.694;23.314;2023-06-14T05:20:08;94913.88;;;20.30;70.47
70127;BME280;57491;42.694;23.314;2023-06-14T05:22:37;94924.19;;;20.48;69.58
70127;BME280;57491;42.694;23.314;2023-06-14T05:25:06;94922.53;;;20.64;68.73
70127;BME280;57491;42.694;23.314;2023-06-14T05:27:33;94929.91;;;20.83;67.95
70127;BME280;57491;42.694;23.314;2023-06-14T05:30:03;94940.13;;;20.97;67.22
70127;BME280;57491;42.694;23.314;2023-06-14T05:32:30;94942.81;;;21.02;66.76
70127;BME280;57491;42.694;23.314;2023-06-14T05:34:58;94946.75;;;20.99;66.89
70127;BME280;57491;42.694;23.314;2023-06-14T05:37:25;94939.13;;;21.03;66.70
70127;BME280;57491;42.694;23.314;2023-06-14T05:39:52;94940.72;;;21.04;66.82
70127;BME280;57491;42.694;23.314;2023-06-14T05:42:21;94946.16;;;21.14;66.88
70127;BME280;57491;42.694;23.314;2023-06-14T05:44:48;94934.66;;;21.25;67.15
70127;BME280;57491;42.694;23.314;2023-06-14T05:47:16;94940.53;;;21.32;66.78
70127;BME280;57491;42.694;23.314;2023-06-14T05:49:43;94947.53;;;21.43;66.67
70127;BME280;57491;42.694;23.314;2023-06-14T05:52:10;94947.78;;;21.42;67.02
70127;BME280;57491;42.694;23.314;2023-06-14T05:54:38;94945.84;;;21.32;66.26
70127;BME280;57491;42.694;23.314;2023-06-14T05:57:07;94945.84;;;21.32;67.03
70127;BME280;57491;42.694;23.314;2023-06-14T05:59:35;94950.03;;;21.28;65.98
70127;BME280;57491;42.694;23.314;2023-06-14T06:02:03;94946.28;;;21.24;67.08
70127;BME280;57491;42.694;23.314;2023-06-14T06:04:31;94956.34;;;21.27;67.33
70127;BME280;57491;42.694;23.314;2023-06-14T06:06:58;94953.69;;;21.27;67.34
70127;BME280;57491;42.694;23.314;2023-06-14T06:09:25;94953.75;;;21.32;67.04
70127;BME280;57491;42.694;23.314;2023-06-14T06:11:54;94947.72;;;21.36;66.98
70127;BME280;57491;42.694;23.314;2023-06-14T06:14:21;94956.34;;;21.27;66.24
70127;BME280;57491;42.694;23.314;2023-06-14T06:16:53;94954.56;;;21.11;67.12
70127;BME280;57491;42.694;23.314;2023-06-14T06:19:22;94969.56;;;21.05;67.41
70127;BME280;57491;42.694;23.314;2023-06-14T06:21:50;94962.88;;;20.98;68.50
70127;BME280;57491;42.694;23.314;2023-06-14T06:24:17;94961.25;;;20.97;68.08
70127;BME280;57491;42.694;23.314;2023-06-14T06:26:44;94963.97;;;21.02;68.07
70127;BME280;57491;42.694;23.314;2023-06-14T06:29:11;94962.66;;;21.04;68.02
70127;BME280;57491;42.694;23.314;2023-06-14T06:31:39;94963.06;;;21.13;68.63
70127;BME280;57491;42.694;23.314;2023-06-14T06:34:08;94964.78;;;21.24;67.97
70127;BME280;57491;42.694;23.314;2023-06-14T06:36:35;94969.13;;;21.35;67.56
70127;BME280;57491;42.694;23.314;2023-06-14T06:39:02;94967.09;;;21.42;66.58
70127;BME280;57491;42.694;23.314;2023-06-14T06:41:35;94964.03;;;21.28;66.46
70127;BME280;57491;42.694;23.314;2023-06-14T06:44:03;94969.19;;;21.40;66.44
70127;BME280;57491;42.694;23.314;2023-06-14T06:46:30;94961.88;;;21.47;66.78
70127;BME280;57491;42.694;23.314;2023-06-14T06:48:57;94971.31;;;21.65;66.13
70127;BME280;57491;42.694;23.314;2023-06-14T06:51:25;94965.31;;;21.74;65.67
70127;BME280;57491;42.694;23.314;2023-06-14T06:53:53;94966.94;;;21.80;65.32
70127;BME280;57491;42.694;23.314;2023-06-14T06:56:22;94968.97;;;21.95;65.17
70127;BME280;57491;42.694;23.314;2023-06-14T06:58:50;94968.78;;;22.07;64.51
70127;BME280;57491;42.694;23.314;2023-06-14T07:01:17;94970.75;;;22.21;63.79
70127;BME280;57491;42.694;23.314;2023-06-14T07:03:44;94967.94;;;22.33;63.26
70127;BME280;57491;42.694;23.314;2023-06-14T07:06:12;94971.25;;;22.50;62.63
70127;BME280;57491;42.694;23.314;2023-06-14T07:08:40;94960.22;;;22.68;62.89
70127;BME280;57491;42.694;23.314;2023-06-14T07:11:07;94968.84;;;22.91;61.92
70127;BME280;57491;42.694;23.314;2023-06-14T07:13:34;94976.63;;;23.07;61.75
70127;BME280;57491;42.694;23.314;2023-06-14T07:16:03;94975.59;;;23.24;60.81
70127;BME280;57491;42.694;23.314;2023-06-14T07:18:31;94969.28;;;23.35;59.93
70127;BME280;57491;42.694;23.314;2023-06-14T07:20:58;94967.13;;;23.22;60.26
70127;BME280;57491;42.694;23.314;2023-06-14T07:23:26;94969.06;;;23.41;59.38
70127;BME280;57491;42.694;23.314;2023-06-14T07:25:55;94963.28;;;23.60;59.57
70127;BME280;57491;42.694;23.314;2023-06-14T07:28:22;94963.34;;;23.95;59.29
70127;BME280;57491;42.694;23.314;2023-06-14T07:30:49;94960.72;;;24.20;58.18
70127;BME280;57491;42.694;23.314;2023-06-14T07:33:17;94968.66;;;24.45;57.58
70127;BME280;57491;42.694;23.314;2023-06-14T07:35:44;94969.69;;;24.75;56.19
70127;BME280;57491;42.694;23.314;2023-06-14T07:38:13;94956.41;;;24.90;55.42
70127;BME280;57491;42.694;23.314;2023-06-14T07:40:43;94960.84;;;25.00;54.75
70127;BME280;57491;42.694;23.314;2023-06-14T07:43:12;94957.13;;;25.01;54.33
70127;BME280;57491;42.694;23.314;2023-06-14T07:45:39;94952.84;;;25.10;53.83
70127;BME280;57491;42.694;23.314;2023-06-14T07:48:06;94959.44;;;25.22;53.82
70127;BME280;57491;42.694;23.314;2023-06-14T07:50:34;94957.09;;;25.11;51.84
70127;BME280;57491;42.694;23.314;2023-06-14T07:53:01;94965.88;;;25.11;52.36
70127;BME280;57491;42.694;23.314;2023-06-14T07:55:28;94965.69;;;24.93;52.20
70127;BME280;57491;42.694;23.314;2023-06-14T07:57:56;94974.72;;;24.81;53.40
70127;BME280;57491;42.694;23.314;2023-06-14T08:00:25;94979.75;;;24.83;53.39
70127;BME280;57491;42.694;23.314;2023-06-14T08:02:54;94964.34;;;24.85;53.97
70127;BME280;57491;42.694;23.314;2023-06-14T08:05:24;94974.44;;;24.83;53.91
70127;BME280;57491;42.694;23.314;2023-06-14T08:07:53;94986.69;;;24.74;53.27
70127;BME280;57491;42.694;23.314;2023-06-14T08:10:20;94991.78;;;24.65;54.06
70127;BME280;57491;42.694;23.314;2023-06-14T08:12:48;94987.25;;;24.76;53.73
70127;BME280;57491;42.694;23.314;2023-06-14T08:15:15;94994.16;;;24.87;52.78
70127;BME280;57491;42.694;23.314;2023-06-14T08:17:44;94995.72;;;25.03;52.29
70127;BME280;57491;42.694;23.314;2023-06-14T08:20:12;94987.97;;;25.12;51.77
70127;BME280;57491;42.694;23.314;2023-06-14T08:22:43;94990.84;;;25.25;51.80
70127;BME280;57491;42.694;23.314;2023-06-14T08:25:12;94989.75;;;25.31;51.63
70127;BME280;57491;42.694;23.314;2023-06-14T08:27:39;94991.81;;;25.45;50.93
70127;BME280;57491;42.694;23.314;2023-06-14T08:30:07;94990.19;;;25.49;51.35
70127;BME280;57491;42.694;23.314;2023-06-14T08:32:34;94991.78;;;25.60;50.95
70127;BME280;57491;42.694;23.314;2023-06-14T08:35:04;94995.72;;;25.67;49.84
70127;BME280;57491;42.694;23.314;2023-06-14T08:37:38;94994.91;;;25.67;50.51
70127;BME280;57491;42.694;23.314;2023-06-14T08:40:17;94991.22;;;25.63;49.56
70127;BME280;57491;42.694;23.314;2023-06-14T08:42:45;94996.41;;;25.88;48.77
70127;BME280;57491;42.694;23.314;2023-06-14T08:45:13;94984.47;;;26.25;48.38
70127;BME280;57491;42.694;23.314;2023-06-14T08:47:40;94976.28;;;26.45;47.17
70127;BME280;57491;42.694;23.314;2023-06-14T08:50:09;94981.75;;;26.58;47.26
70127;BME280;57491;42.694;23.314;2023-06-14T08:52:38;94981.81;;;26.82;46.52
70127;BME280;57491;42.694;23.314;2023-06-14T08:55:11;94971.63;;;26.84;46.13
70127;BME280;57491;42.694;23.314;2023-06-14T08:57:39;94974.00;;;27.15;45.58
70127;BME280;57491;42.694;23.314;2023-06-14T09:00:08;94981.44;;;27.41;45.41
70127;BME280;57491;42.694;23.314;2023-06-14T09:02:37;94968.34;;;27.82;44.70
70127;BME280;57491;42.694;23.314;2023-06-14T09:05:10;94976.00;;;28.08;44.53
70127;BME280;57491;42.694;23.314;2023-06-14T09:07:39;94968.81;;;28.41;42.10
70127;BME280;57491;42.694;23.314;2023-06-14T09:10:08;94969.13;;;28.71;41.91
70127;BME280;57491;42.694;23.314;2023-06-14T09:12:37;94970.81;;;28.49;42.43
70127;BME280;57491;42.694;23.314;2023-06-14T09:15:07;94966.06;;;28.46;41.77
70127;BME280;57491;42.694;23.314;2023-06-14T09:17:38;94953.13;;;27.64;42.93
70127;BME280;57491;42.694;23.314;2023-06-14T09:20:07;94956.22;;;27.29;44.34
70127;BME280;57491;42.694;23.314;2023-06-14T09:22:37;94958.41;;;27.45;44.31
70127;BME280;57491;42.694;23.314;2023-06-14T09:25:05;94955.88;;;27.35;44.00
70127;BME280;57491;42.694;23.314;2023-06-14T09:27:33;94962.81;;;27.13;43.79
70127;BME280;57491;42.694;23.314;2023-06-14T09:30:02;94962.81;;;27.13;44.60
70127;BME280;57491;42.694;23.314;2023-06-14T09:32:30;94957.09;;;27.24;45.32
70127;BME280;57491;42.694;23.314;2023-06-14T09:34:58;94954.06;;;27.31;43.63
70127;BME280;57491;42.694;23.314;2023-06-14T09:37:29;94955.75;;;27.22;44.09
70127;BME280;57491;42.694;23.314;2023-06-14T09:40:00;94952.56;;;27.01;45.36
70127;BME280;57491;42.694;23.314;2023-06-14T09:42:28;94951.66;;;26.53;46.02
70127;BME280;57491;42.694;23.314;2023-06-14T09:44:56;94943.72;;;26.48;46.96
70127;BME280;57491;42.694;23.314;2023-06-14T09:47:24;94952.06;;;26.70;45.80
70127;BME280;57491;42.694;23.314;2023-06-14T09:49:51;94954.25;;;26.92;45.93
70127;BME280;57491;42.694;23.314;2023-06-14T09:52:20;94949.34;;;27.23;44.97
70127;BME280;57491;42.694;23.314;2023-06-14T09:54:48;94947.19;;;27.67;44.59
70127;BME280;57491;42.694;23.314;2023-06-14T09:57:21;94944.50;;;28.23;43.98
70127;BME280;57491;42.694;23.314;2023-06-14T09:59:53;94935.31;;;28.75;42.90
70127;BME280;57491;42.694;23.314;2023-06-14T10:02:30;94940.06;;;28.78;41.74
70127;BME280;57491;42.694;23.314;2023-06-14T10:05:03;94940.91;;;28.60;42.59
70127;BME280;57491;42.694;23.314;2023-06-14T10:07:35;94929.81;;;28.53;42.49
70127;BME280;57491;42.694;23.314;2023-06-14T10:10:06;94930.41;;;28.50;42.48
70127;BME280;57491;42.694;23.314;2023-06-14T10:12:35;94925.22;;;28.40;41.98
70127;BME280;57491;42.694;23.314;2023-06-14T10:15:03;94925.59;;;28.33;43.58
70127;BME280;57491;42.694;23.314;2023-06-14T10:17:37;94921.47;;;28.41;43.43
70127;BME280;57491;42.694;23.314;2023-06-14T10:20:17;94922.88;;;28.52;43.04
70127;BME280;57491;42.694;23.314;2023-06-14T10:22:50;94916.00;;;28.78;42.07
70127;BME280;57491;42.694;23.314;2023-06-14T10:25:28;94913.03;;;28.94;41.55
70127;BME280;57491;42.694;23.314;2023-06-14T10:28:16;94909.56;;;28.93;42.06
70127;BME280;57491;42.694;23.314;2023-06-14T10:31:02;94916.00;;;28.78;41.79
70127;BME280;57491;42.694;23.314;2023-06-14T10:33:31;94899.47;;;28.44;41.83
70127;BME280;57491;42.694;23.314;2023-06-14T10:36:25;94920.25;;;28.79;40.96
70127;BME280;57491;42.694;23.314;2023-06-14T10:39:03;94900.09;;;29.23;40.47
70127;BME280;57491;42.694;23.314;2023-06-14T10:41:35;94897.16;;;29.38;39.37
70127;BME280;57491;42.694;23.314;2023-06-14T10:44:44;94906.25;;;29.23;40.36
70127;BME280;57491;42.694;23.314;2023-06-14T10:47:26;94896.94;;;29.21;40.78
70127;BME280;57491;42.694;23.314;2023-06-14T10:49:54;94886.88;;;29.04;41.19
70127;BME280;57491;42.694;23.314;2023-06-14T10:52:24;94893.13;;;29.00;40.72
70127;BME280;57491;42.694;23.314;2023-06-14T10:55:05;94892.59;;;28.70;40.69
70127;BME280;57491;42.694;23.314;2023-06-14T10:57:35;94889.28;;;28.46;41.15
70127;BME280;57491;42.694;23.314;2023-06-14T11:00:05;94885.06;;;28.59;41.20
70127;BME280;57491;42.694;23.314;2023-06-14T11:05:53;94875.47;;;28.99;39.98
70127;BME280;57491;42.694;23.314;2023-06-14T11:08:39;94873.97;;;29.06;40.70
70127;BME280;57491;42.694;23.314;2023-06-14T11:11:08;94874.22;;;29.18;40.18
70127;BME280;57491;42.694;23.314;2023-06-14T11:13:38;94870.16;;;29.48;39.31
70127;BME280;57491;42.694;23.314;2023-06-14T11:16:12;94867.56;;;30.01;38.51
70127;BME280;57491;42.694;23.314;2023-06-14T11:18:39;94858.22;;;29.77;37.45
70127;BME280;57491;42.694;23.314;2023-06-14T11:21:07;94865.34;;;29.81;37.69
70127;BME280;57491;42.694;23.314;2023-06-14T11:23:35;94852.22;;;30.16;38.29
70127;BME280;57491;42.694;23.314;2023-06-14T11:26:02;94860.50;;;30.36;36.16
70127;BME280;57491;42.694;23.314;2023-06-14T11:28:37;94858.19;;;29.90;36.55
70127;BME280;57491;42.694;23.314;2023-06-14T11:31:06;94857.00;;;30.27;36.76
70127;BME280;57491;42.694;23.314;2023-06-14T11:33:35;94851.91;;;30.87;35.74
70127;BME280;57491;42.694;23.314;2023-06-14T11:36:05;94846.72;;;30.99;35.23
70127;BME280;57491;42.694;23.314;2023-06-14T11:38:35;94856.94;;;31.20;35.08
70127;BME280;57491;42.694;23.314;2023-06-14T11:41:03;94851.38;;;31.16;34.51
70127;BME280;57491;42.694;23.314;2023-06-14T11:43:30;94849.94;;;30.40;35.85
70127;BME280;57491;42.694;23.314;2023-06-14T11:45:59;94851.75;;;30.22;35.79
70127;BME280;57491;42.694;23.314;2023-06-14T11:48:37;94836.47;;;30.23;36.09
70127;BME280;57491;42.694;23.314;2023-06-14T11:51:07;94836.16;;;30.55;35.65
70127;BME280;57491;42.694;23.314;2023-06-14T11:53:35;94832.16;;;30.75;34.96
70127;BME280;57491;42.694;23.314;2023-06-14T11:56:02;94829.88;;;30.60;36.07
70127;BME280;57491;42.694;23.314;2023-06-14T11:58:29;94824.34;;;30.56;35.87
70127;BME280;57491;42.694;23.314;2023-06-14T12:00:57;94821.88;;;30.06;36.53
70127;BME280;57491;42.694;23.314;2023-06-14T12:03:24;94820.78;;;30.07;35.76
70127;BME280;57491;42.694;23.314;2023-06-14T12:06:04;94811.34;;;29.88;35.92
70127;BME280;57491;42.694;23.314;2023-06-14T12:08:34;94803.66;;;29.73;36.71
70127;BME280;57491;42.694;23.314;2023-06-14T12:11:11;94797.75;;;29.84;36.41
70127;BME280;57491;42.694;23.314;2023-06-14T12:13:39;94797.81;;;29.70;36.63
70127;BME280;57491;42.694;23.314;2023-06-14T12:16:10;94803.84;;;29.54;37.26
70127;BME280;57491;42.694;23.314;2023-06-14T12:18:40;94803.31;;;28.94;37.68
70127;BME280;57491;42.694;23.314;2023-06-14T12:21:10;94794.88;;;28.87;37.92
70127;BME280;57491;42.694;23.314;2023-06-14T12:23:45;94785.19;;;28.91;38.51
70127;BME280;57491;42.694;23.314;2023-06-14T12:26:17;94787.78;;;29.18;38.56
70127;BME280;57491;42.694;23.314;2023-06-14T12:28:45;94794.81;;;29.50;37.27
70127;BME280;57491;42.694;23.314;2023-06-14T12:31:13;94790.13;;;29.55;36.94
70127;BME280;57491;42.694;23.314;2023-06-14T12:33:41;94779.66;;;29.45;37.25
70127;BME280;57491;42.694;23.314;2023-06-14T12:36:10;94785.88;;;29.54;37.61
70127;BME280;57491;42.694;23.314;2023-06-14T12:38:37;94778.38;;;29.65;37.65
70127;BME280;57491;42.694;23.314;2023-06-14T12:41:04;94789.03;;;29.79;36.97
70127;BME280;57491;42.694;23.314;2023-06-14T12:43:34;94768.53;;;29.30;38.07
70127;BME280;57491;42.694;23.314;2023-06-14T12:46:01;94786.84;;;28.87;38.59
70127;BME280;57491;42.694;23.314;2023-06-14T12:48:28;94773.88;;;27.79;40.00
70127;BME280;57491;42.694;23.314;2023-06-14T12:50:56;94773.84;;;27.47;41.47
70127;BME280;57491;42.694;23.314;2023-06-14T12:53:25;94769.38;;;27.29;41.35
70127;BME280;57491;42.694;23.314;2023-06-14T12:55:52;94769.84;;;27.31;41.05
70127;BME280;57491;42.694;23.314;2023-06-14T12:58:20;94766.13;;;26.94;41.77
70127;BME280;57491;42.694;23.314;2023-06-14T13:00:49;94766.19;;;26.89;42.21
70127;BME280;57491;42.694;23.314;2023-06-14T13:03:17;94771.84;;;26.64;42.84